Time;durP1;ratioP1;P1;durP2;ratioP2;P2;SDS_P1;SDS_P2;PMS_P1;PMS_P2;Temp;Humidity;BMP_temperature;BMP_pressure;BME280_temperature;BME280_humidity;BME280_pressure;Samples;Min_cycle;Max_cycle;Signal;HPM_P1;HPM_P2
2023/08/03 00:06:45;;;;;;;0.68;0.38;;;;;;;;;;20998990;28;20481;-65
2023/08/03 00:16:46;;;;;;;1.45;0.30;;;;;;;;;;20995441;28;20049;-65
2023/08/03 00:26:48;;;;;;;1.08;0.57;;;;;;;;;;20997342;28;20045;-65
2023/08/03 00:36:49;;;;;;;1.67;1.13;;;;;;;;;;20996703;28;20123;-64
2023/08/03 00:46:50;;;;;;;1.23;0.50;;;;;;;;;;20996229;28;20124;-65
2023/08/03 00:56:51;;;;;;;3.38;0.50;;;;;;;;;;20995931;28;20084;-64
2023/08/03 01:06:52;;;;;;;1.20;0.80;;;;;;;;;;20995646;28;20072;-65
2023/08/03 01:16:53;;;;;;;0.88;0.57;;;;;;;;;;20993541;28;20387;-65
2023/08/03 01:26:54;;;;;;;0.82;0.30;;;;;;;;;;20996409;28;20115;-65
2023/08/03 01:36:56;;;;;;;1.60;1.05;;;;;;;;;;21010072;28;20045;-65
2023/08/03 01:46:58;;;;;;;2.25;0.70;;;;;;;;;;21009847;28;20055;-66
2023/08/03 01:57:00;;;;;;;4.63;2.67;;;;;;;;;;21008823;28;20115;-65
2023/08/03 02:07:16;;;;;;;1.35;0.70;;;;;;;;;;21007971;28;20044;-65
2023/08/03 02:17:17;;;;;;;0.88;0.57;;;;;;;;;;21005771;28;20052;-65
2023/08/03 02:27:18;;;;;;;0.85;0.30;;;;;;;;;;21006228;28;20051;-65
2023/08/03 02:37:19;;;;;;;1.50;0.63;;;;;;;;;;21005122;28;20076;-65
2023/08/03 02:47:20;;;;;;;1.17;0.50;;;;;;;;;;21003981;28;20516;-65
2023/08/03 02:57:21;;;;;;;1.75;1.00;;;;;;;;;;21003572;28;20076;-65
2023/08/03 03:07:22;;;;;;;0.65;0.40;;;;;;;;;;21003142;28;20444;-65
2023/08/03 03:17:23;;;;;;;0.40;0.28;;;;;;;;;;21000984;28;20060;-65
2023/08/03 03:27:25;;;;;;;2.65;1.52;;;;;;;;;;21001300;28;20044;-65
2023/08/03 03:37:26;;;;;;;1.67;0.80;;;;;;;;;;21000527;28;20049;-65
2023/08/03 03:47:27;;;;;;;1.55;0.63;;;;;;;;;;20999563;28;20040;-66
2023/08/03 03:57:28;;;;;;;5.53;3.33;;;;;;;;;;20998187;28;20049;-65
2023/08/03 04:07:29;;;;;;;7.10;5.00;;;;;;;;;;20997667;28;20127;-64
2023/08/03 04:17:30;;;;;;;2.95;2.10;;;;;;;;;;20998492;28;20052;-65
2023/08/03 04:27:31;;;;;;;6.03;3.63;;;;;;;;;;20995619;28;20044;-64
2023/08/03 04:37:32;;;;;;;1.30;0.60;;;;;;;;;;20994721;28;20045;-65
2023/08/03 04:47:34;;;;;;;1.20;0.52;;;;;;;;;;20996141;28;20120;-65
2023/08/03 04:57:35;;;;;;;1.05;0.60;;;;;;;;;;20995602;28;20374;-65
2023/08/03 05:07:36;;;;;;;1.00;0.43;;;;;;;;;;21014393;28;20513;-65
2023/08/03 05:17:37;;;;;;;1.83;0.60;;;;;;;;;;21021309;28;20062;-65
2023/08/03 05:27:38;;;;;;;1.90;0.70;;;;;;;;;;21021708;28;20531;-65
2023/08/03 05:37:39;;;;;;;1.25;0.70;;;;;;;;;;21021560;28;20045;-65
2023/08/03 05:47:41;;;;;;;1.02;0.57;;;;;;;;;;21021207;28;20048;-65
2023/08/03 05:57:42;;;;;;;2.15;0.50;;;;;;;;;;21020948;28;20059;-64
2023/08/03 06:07:43;;;;;;;1.10;0.43;;;;;;;;;;21020790;28;20093;-63
2023/08/03 06:17:44;;;;;;;2.05;0.63;;;;;;;;;;21011593;28;20131;-64
2023/08/03 06:27:45;;;;;;;1.60;0.60;;;;;;;;;;21006774;28;20481;-63
2023/08/03 06:37:46;;;;;;;3.72;1.05;;;;;;;;;;21004603;28;20094;-63
2023/08/03 06:47:48;;;;;;;1.85;0.80;;;;;;;;;;21004199;28;20045;-63
2023/08/03 06:57:50;;;;;;;3.65;0.90;;;;;;;;;;21004513;28;20044;-64
2023/08/03 07:07:51;;;;;;;2.42;0.68;;;;;;;;;;21002430;28;20041;-63
2023/08/03 07:17:52;;;;;;;4.22;0.93;;;;;;;;;;21002231;28;20080;-64
2023/08/03 07:27:53;;;;;;;2.80;0.90;;;;;;;;;;21001002;28;20051;-63
2023/08/03 07:37:54;;;;;;;3.25;1.00;;;;;;;;;;21000515;28;20412;-64
2023/08/03 07:47:57;;;;;;;6.10;1.00;;;;;;;;;;20999518;28;20048;-63
2023/08/03 07:57:58;;;;;;;1.65;0.70;;;;;;;;;;20999444;28;20049;-64
2023/08/03 08:07:59;;;;;;;2.25;0.80;;;;;;;;;;20998437;28;20402;-63
2023/08/03 08:18:00;;;;;;;3.63;0.90;;;;;;;;;;20997957;28;20406;-63
2023/08/03 08:28:02;;;;;;;1.60;0.70;;;;;;;;;;20982916;28;20450;-65
2023/08/03 08:38:06;;;;;;;1.42;0.60;;;;;;;;;;20912529;28;20045;-61
2023/08/03 08:48:07;;;;;;;2.42;0.90;;;;;;;;;;20910280;28;20049;-65
2023/08/03 08:58:08;;;;;;;2.17;0.77;;;;;;;;;;20904069;28;20414;-64
2023/08/03 09:08:13;;;;;;;1.90;0.70;;;;;;;;;;20909385;28;20068;-63
2023/08/03 09:18:15;;;;;;;2.00;0.70;;;;;;;;;;20912289;28;20049;-64
2023/08/03 09:28:17;;;;;;;2.97;1.58;;;;;;;;;;20909037;28;20098;-63
2023/08/03 09:38:24;;;;;;;3.20;0.90;;;;;;;;;;20907696;28;20095;-63
2023/08/03 09:48:26;;;;;;;1.50;1.10;;;;;;;;;;20906335;28;20409;-63
2023/08/03 09:58:33;;;;;;;4.53;3.25;;;;;;;;;;20919856;28;20057;-63
2023/08/03 10:08:34;;;;;;;2.80;1.80;;;;;;;;;;20925546;28;20047;-63
2023/08/03 10:18:36;;;;;;;2.42;1.20;;;;;;;;;;20924427;28;20041;-63
2023/08/03 10:28:40;;;;;;;2.75;0.77;;;;;;;;;;20924706;28;20095;-63
2023/08/03 10:38:44;;;;;;;2.92;0.95;;;;;;;;;;20923693;28;20044;-64
2023/08/03 10:48:45;;;;;;;2.38;1.08;;;;;;;;;;20923218;28;20509;-64
2023/08/03 10:58:47;;;;;;;2.88;0.85;;;;;;;;;;20921539;28;20087;-64
2023/08/03 11:08:48;;;;;;;3.58;1.13;;;;;;;;;;20920914;28;20055;-64
2023/08/03 11:18:49;;;;;;;1.30;0.88;;;;;;;;;;20920596;28;20043;-64
2023/08/03 11:28:51;;;;;;;4.07;1.10;;;;;;;;;;20920087;28;20470;-63
2023/08/03 11:38:52;;;;;;;2.65;1.10;;;;;;;;;;20918818;28;20048;-63
2023/08/03 11:48:56;;;;;;;2.17;1.02;;;;;;;;;;20918468;28;20052;-63
2023/08/03 11:58:58;;;;;;;4.18;1.38;;;;;;;;;;20916847;28;20075;-64
2023/08/03 12:08:59;;;;;;;1.30;0.93;;;;;;;;;;20916158;28;20406;-63
2023/08/03 12:19:01;;;;;;;1.75;1.00;;;;;;;;;;20914466;28;20045;-63
2023/08/03 12:29:04;;;;;;;3.55;1.15;;;;;;;;;;20915179;28;20171;-63
2023/08/03 12:39:05;;;;;;;4.43;1.30;;;;;;;;;;20914453;28;20394;-64
2023/08/03 12:49:06;;;;;;;4.20;1.35;;;;;;;;;;20912351;28;20055;-63
2023/08/03 12:59:07;;;;;;;4.25;1.55;;;;;;;;;;20912815;28;20076;-64
2023/08/03 13:09:08;;;;;;;2.50;1.73;;;;;;;;;;20912722;28;20041;-64
2023/08/03 13:19:09;;;;;;;4.68;1.33;;;;;;;;;;20912619;28;20390;-64
2023/08/03 13:29:11;;;;;;;3.17;1.50;;;;;;;;;;20924874;28;20460;-64
2023/08/03 13:39:12;;;;;;;2.88;1.38;;;;;;;;;;20928081;28;20076;-64
2023/08/03 13:49:13;;;;;;;2.53;1.52;;;;;;;;;;20927658;28;20098;-65
2023/08/03 13:59:14;;;;;;;3.20;1.45;;;;;;;;;;20926731;28;20049;-64
2023/08/03 14:09:17;;;;;;;2.78;1.40;;;;;;;;;;20926002;28;20080;-64
2023/08/03 14:19:19;;;;;;;3.53;1.65;;;;;;;;;;20925439;28;20045;-64
2023/08/03 14:29:20;;;;;;;3.20;1.42;;;;;;;;;;20924880;28;20041;-64
2023/08/03 14:39:21;;;;;;;3.03;1.70;;;;;;;;;;20922821;28;20478;-64
2023/08/03 14:49:22;;;;;;;3.13;1.08;;;;;;;;;;20921939;28;20045;-64
2023/08/03 14:59:24;;;;;;;3.10;1.33;;;;;;;;;;20922246;28;20045;-64
2023/08/03 15:09:25;;;;;;;2.20;1.50;;;;;;;;;;20921421;28;20049;-65
2023/08/03 15:19:26;;;;;;;2.40;1.33;;;;;;;;;;20920857;28;20048;-66
2023/08/03 15:29:27;;;;;;;3.13;1.30;;;;;;;;;;20920456;28;20048;-67
2023/08/03 15:39:28;;;;;;;3.13;1.27;;;;;;;;;;20919571;28;20049;-66
2023/08/03 15:49:29;;;;;;;3.35;1.40;;;;;;;;;;20918670;28;20052;-67
2023/08/03 15:59:31;;;;;;;2.50;1.23;;;;;;;;;;20916986;28;20132;-66
2023/08/03 16:09:32;;;;;;;3.90;1.98;;;;;;;;;;20915928;28;20132;-66
2023/08/03 16:19:33;;;;;;;2.80;1.48;;;;;;;;;;20915723;28;20128;-66
2023/08/03 16:29:34;;;;;;;2.95;1.63;;;;;;;;;;20913306;28;20092;-65
2023/08/03 16:39:35;;;;;;;3.95;2.55;;;;;;;;;;20913721;28;20490;-65
2023/08/03 16:49:40;;;;;;;3.95;2.42;;;;;;;;;;20913063;28;20095;-64
2023/08/03 16:59:41;;;;;;;3.90;1.52;;;;;;;;;;20914143;28;20049;-64
2023/08/03 17:09:42;;;;;;;6.22;1.10;;;;;;;;;;20912787;28;20059;-65
2023/08/03 17:19:44;;;;;;;5.25;0.93;;;;;;;;;;20912423;28;20175;-63
2023/08/03 17:29:45;;;;;;;4.25;1.40;;;;;;;;;;20911633;28;20041;-65
2023/08/03 17:39:46;;;;;;;3.00;1.88;;;;;;;;;;20911885;28;20120;-65
2023/08/03 17:49:47;;;;;;;4.70;2.10;;;;;;;;;;20910188;28;20059;-64
2023/08/03 17:59:49;;;;;;;4.07;1.52;;;;;;;;;;20911829;28;20499;-65
2023/08/03 18:09:51;;;;;;;2.90;1.17;;;;;;;;;;20913563;28;20103;-64
2023/08/03 18:19:57;;;;;;;4.30;1.52;;;;;;;;;;20924273;28;20044;-65
2023/08/03 18:29:58;;;;;;;3.72;1.20;;;;;;;;;;20925080;28;20556;-64
2023/08/03 18:39:59;;;;;;;3.17;1.38;;;;;;;;;;20924387;28;20048;-64
2023/08/03 18:50:00;;;;;;;4.18;1.70;;;;;;;;;;20923377;28;20489;-65
2023/08/03 19:00:04;;;;;;;5.53;1.40;;;;;;;;;;20922981;28;20102;-65
2023/08/03 19:10:06;;;;;;;3.25;1.20;;;;;;;;;;20921382;28;20056;-64
2023/08/03 19:20:07;;;;;;;2.17;1.35;;;;;;;;;;20919223;28;20044;-64
2023/08/03 19:30:08;;;;;;;3.00;1.10;;;;;;;;;;20920564;28;20041;-65
2023/08/03 19:40:10;;;;;;;4.93;1.25;;;;;;;;;;20919005;28;20041;-64
2023/08/03 19:50:11;;;;;;;3.03;1.17;;;;;;;;;;20917879;28;20045;-64
2023/08/03 20:00:12;;;;;;;4.13;1.23;;;;;;;;;;20916800;28;20056;-64
2023/08/03 20:10:13;;;;;;;1.88;1.15;;;;;;;;;;20916111;28;20064;-65
2023/08/03 20:20:15;;;;;;;2.78;1.35;;;;;;;;;;20916659;28;20071;-65
2023/08/03 20:30:16;;;;;;;2.65;1.50;;;;;;;;;;20915691;28;20044;-64
2023/08/03 20:40:17;;;;;;;3.17;1.20;;;;;;;;;;20914322;28;20437;-64
2023/08/03 20:50:18;;;;;;;4.70;1.40;;;;;;;;;;20914507;28;20555;-64
2023/08/03 21:00:19;;;;;;;3.88;1.73;;;;;;;;;;20912735;28;20091;-64
2023/08/03 21:10:20;;;;;;;4.47;1.50;;;;;;;;;;20913321;28;20140;-65
2023/08/03 21:20:21;;;;;;;4.72;1.40;;;;;;;;;;20912183;28;20123;-64
2023/08/03 21:30:23;;;;;;;2.97;1.50;;;;;;;;;;20912009;28;20080;-64
2023/08/03 21:40:24;;;;;;;4.32;1.83;;;;;;;;;;20910994;28;20063;-65
2023/08/03 21:50:26;;;;;;;3.92;1.80;;;;;;;;;;20924540;28;20051;-64
2023/08/03 22:00:27;;;;;;;4.90;1.90;;;;;;;;;;20927601;28;20041;-64
2023/08/03 22:10:28;;;;;;;4.35;1.88;;;;;;;;;;20925997;28;20468;-64
2023/08/03 22:20:29;;;;;;;3.22;1.48;;;;;;;;;;20925388;28;20119;-64
2023/08/03 22:30:30;;;;;;;2.75;1.52;;;;;;;;;;20924238;28;20049;-64
2023/08/03 22:40:31;;;;;;;7.70;1.52;;;;;;;;;;20923680;28;20033;-64
2023/08/03 22:50:36;;;;;;;3.15;1.60;;;;;;;;;;20922861;28;20045;-64
2023/08/03 23:00:38;;;;;;;7.13;1.80;;;;;;;;;;20920746;28;20095;-64
2023/08/03 23:10:39;;;;;;;8.65;1.33;;;;;;;;;;20920518;28;20049;-63
2023/08/03 23:20:40;;;;;;;4.82;0.90;;;;;;;;;;20920432;28;20052;-64
2023/08/03 23:30:41;;;;;;;6.00;1.20;;;;;;;;;;20919898;28;20044;-64
2023/08/03 23:40:42;;;;;;;8.07;1.10;;;;;;;;;;20919387;28;20102;-64
2023/08/03 23:50:43;;;;;;;5.75;1.48;;;;;;;;;;20918275;28;20049;-64
